createdAt,value
2023-04-29T00:01:07.986Z,98130.80
2023-04-29T00:03:35.130Z,98127.05
2023-04-29T00:06:03.250Z,98128.45
2023-04-29T00:08:30.068Z,98129.05
2023-04-29T00:10:56.865Z,98131.35
2023-04-29T00:13:23.661Z,98134.16
2023-04-29T00:15:50.940Z,98140.55
2023-04-29T00:18:17.736Z,98137.14
2023-04-29T00:20:44.626Z,98140.24
2023-04-29T00:23:11.896Z,98137.89
2023-04-29T00:25:39.156Z,98135.34
2023-04-29T00:28:06.786Z,98133.80
2023-04-29T00:30:36.564Z,98130.41
2023-04-29T00:33:03.948Z,98130.06
2023-04-29T00:35:31.399Z,98129.80
2023-04-29T00:37:58.296Z,98128.15
2023-04-29T00:40:25.080Z,98128.61
2023-04-29T00:42:51.912Z,98127.65
2023-04-29T00:45:18.777Z,98123.17
2023-04-29T00:47:45.732Z,98121.05
2023-04-29T00:50:12.736Z,98118.16
2023-04-29T00:52:40.394Z,98117.34
2023-04-29T00:55:09.125Z,98113.40
2023-04-29T00:57:36.213Z,98113.36
2023-04-29T01:00:04.999Z,98111.92
2023-04-29T01:02:32.203Z,98112.64
2023-04-29T01:05:00.005Z,98113.81
2023-04-29T01:07:37.916Z,98114.83
2023-04-29T01:10:14.858Z,98117.35
2023-04-29T01:13:07.465Z,98117.36
2023-04-29T01:15:50.090Z,98117.93
2023-04-29T01:18:26.272Z,98110.04
2023-04-29T01:20:53.753Z,98111.60
2023-04-29T01:23:20.644Z,98110.41
2023-04-29T01:25:49.043Z,98110.96
2023-04-29T01:28:35.928Z,98111.48
2023-04-29T01:31:25.009Z,98114.73
2023-04-29T01:33:58.333Z,98114.02
2023-04-29T01:36:48.038Z,98112.14
2023-04-29T01:39:21.042Z,98111.93
2023-04-29T01:41:59.127Z,98112.98
2023-04-29T01:44:29.687Z,98113.56
2023-04-29T01:46:57.275Z,98112.75
2023-04-29T01:49:28.417Z,98113.27
2023-04-29T01:51:55.940Z,98111.88
2023-04-29T01:54:22.800Z,98105.80
2023-04-29T01:56:50.528Z,98101.11
2023-04-29T01:59:17.320Z,98099.06
2023-04-29T02:01:44.125Z,98101.64
2023-04-29T02:04:11.003Z,98098.70
2023-04-29T02:06:37.885Z,98096.81
2023-04-29T02:09:04.791Z,98096.08
2023-04-29T02:11:32.075Z,98096.54
2023-04-29T02:13:58.980Z,98098.34
2023-04-29T02:16:25.942Z,98100.79
2023-04-29T02:18:53.417Z,98093.61
2023-04-29T02:21:20.307Z,98097.02
2023-04-29T02:23:47.434Z,98097.53
2023-04-29T02:26:15.585Z,98092.46
2023-04-29T02:28:42.549Z,98097.23
2023-04-29T02:31:09.439Z,98094.95
2023-04-29T02:33:36.463Z,98093.09
2023-04-29T02:36:03.850Z,98093.79
2023-04-29T02:38:31.271Z,98093.70
2023-04-29T02:40:58.812Z,98092.58
2023-04-29T02:46:04.932Z,98093.10
2023-04-29T02:48:31.859Z,98091.00
2023-04-29T02:50:58.653Z,98091.56
2023-04-29T02:53:25.505Z,98090.09
2023-04-29T02:55:52.422Z,98094.33
2023-04-29T02:58:19.363Z,98094.55
2023-04-29T03:00:46.485Z,98093.96
2023-04-29T03:03:13.608Z,98092.83
2023-04-29T03:05:40.877Z,98087.95
2023-04-29T03:08:08.016Z,98089.63
2023-04-29T03:10:34.854Z,98085.42
2023-04-29T03:13:01.709Z,98087.34
2023-04-29T03:15:28.778Z,98087.91
2023-04-29T03:17:55.951Z,98082.89
2023-04-29T03:20:22.966Z,98085.14
2023-04-29T03:22:50.414Z,98084.83
2023-04-29T03:25:17.461Z,98084.18
2023-04-29T03:27:44.296Z,98081.33
2023-04-29T03:30:11.487Z,98079.44
2023-04-29T03:32:38.462Z,98085.39
2023-04-29T03:35:05.856Z,98080.65
2023-04-29T03:37:33.139Z,98081.27
2023-04-29T03:40:11.370Z,98078.91
2023-04-29T03:42:38.591Z,98081.83
2023-04-29T03:45:07.050Z,98083.55
2023-04-29T03:47:34.016Z,98084.42
2023-04-29T03:50:01.557Z,98084.05
2023-04-29T03:52:29.133Z,98084.72
2023-04-29T03:54:56.308Z,98080.54
2023-04-29T03:57:23.294Z,98083.29
2023-04-29T03:59:50.874Z,98082.52
2023-04-29T04:02:18.208Z,98087.05
2023-04-29T04:04:46.107Z,98084.20
2023-04-29T04:07:13.110Z,98089.22
2023-04-29T04:09:39.875Z,98085.70
2023-04-29T04:12:06.935Z,98084.40
2023-04-29T04:14:34.602Z,98084.33
2023-04-29T04:17:02.216Z,98079.88
2023-04-29T04:19:30.926Z,98075.34
2023-04-29T04:21:58.045Z,98074.39
2023-04-29T04:24:45.340Z,98071.39
2023-04-29T04:27:12.489Z,98074.23
2023-04-29T04:29:39.453Z,98074.42
2023-04-29T04:32:06.858Z,98079.25
2023-04-29T04:34:33.827Z,98072.85
2023-04-29T04:37:00.697Z,98070.15
2023-04-29T04:39:27.550Z,98069.98
2023-04-29T04:41:54.765Z,98075.19
2023-04-29T04:44:21.755Z,98073.58
2023-04-29T04:46:48.726Z,98074.84
2023-04-29T04:49:15.741Z,98068.98
2023-04-29T04:51:45.753Z,98070.30
2023-04-29T04:54:12.695Z,98069.36
2023-04-29T04:56:39.619Z,98065.61
2023-04-29T04:59:06.949Z,98066.96
2023-04-29T05:01:34.351Z,98068.17
2023-04-29T05:04:02.874Z,98071.35
2023-04-29T05:06:29.975Z,98073.24
2023-04-29T05:08:56.901Z,98070.35
2023-04-29T05:11:23.832Z,98069.54
2023-04-29T05:13:50.736Z,98068.58
2023-04-29T05:16:18.201Z,98072.88
2023-04-29T05:18:45.924Z,98077.43
2023-04-29T05:21:14.541Z,98079.06
2023-04-29T05:23:56.742Z,98078.92
2023-04-29T05:26:23.730Z,98079.89
2023-04-29T05:28:50.515Z,98083.96
2023-04-29T05:31:19.762Z,98084.84
2023-04-29T05:33:49.682Z,98084.23
2023-04-29T05:36:41.519Z,98083.98
2023-04-29T05:39:24.185Z,98082.77
2023-04-29T05:45:56.479Z,98078.69
2023-04-29T05:48:24.155Z,98074.53
2023-04-29T05:50:51.312Z,98080.21
2023-04-29T05:53:18.149Z,98076.48
2023-04-29T05:55:47.675Z,98080.20
2023-04-29T05:58:16.551Z,98079.96
2023-04-29T06:00:44.344Z,98082.44
2023-04-29T06:03:12.947Z,98085.16
2023-04-29T06:05:40.432Z,98084.17
2023-04-29T06:08:07.637Z,98088.20
2023-04-29T06:10:35.098Z,98090.92
2023-04-29T06:13:02.042Z,98090.41
2023-04-29T06:15:28.952Z,98092.37
2023-04-29T06:17:55.849Z,98093.16
2023-04-29T06:20:22.853Z,98087.77
2023-04-29T06:22:49.613Z,98078.98
2023-04-29T06:25:16.797Z,98072.77
2023-04-29T06:27:43.753Z,98075.96
2023-04-29T06:30:11.710Z,98079.63
2023-04-29T06:32:40.073Z,98079.36
2023-04-29T06:35:07.838Z,98078.90
2023-04-29T06:37:37.055Z,98075.91
2023-04-29T06:40:05.629Z,98077.59
2023-04-29T06:42:32.661Z,98078.30
2023-04-29T06:45:00.080Z,98075.91
2023-04-29T06:47:27.161Z,98071.61
2023-04-29T06:49:56.185Z,98068.73
2023-04-29T06:52:23.009Z,98069.91
2023-04-29T06:54:49.771Z,98072.89
2023-04-29T06:57:16.593Z,98074.33
2023-04-29T06:59:43.453Z,98074.59
2023-04-29T07:02:10.184Z,98077.33
2023-04-29T07:04:37.771Z,98079.13
2023-04-29T07:07:04.683Z,98082.15
2023-04-29T07:09:31.814Z,98081.05
2023-04-29T07:11:58.631Z,98079.04
2023-04-29T07:14:25.535Z,98073.78
2023-04-29T07:16:55.705Z,98078.05
2023-04-29T07:19:22.777Z,98079.35
2023-04-29T07:21:49.842Z,98079.85
2023-04-29T07:24:17.310Z,98079.56
2023-04-29T07:26:48.843Z,98074.55
2023-04-29T07:29:15.960Z,98076.03
2023-04-29T07:31:42.854Z,98072.77
2023-04-29T07:34:10.109Z,98074.29
2023-04-29T07:36:37.076Z,98074.40
2023-04-29T07:39:04.373Z,98075.00
2023-04-29T07:41:31.618Z,98069.31
2023-04-29T07:43:58.482Z,98067.09
2023-04-29T07:46:25.365Z,98067.23
2023-04-29T07:48:53.108Z,98067.26
2023-04-29T07:51:19.968Z,98061.05
2023-04-29T07:53:46.848Z,98062.22
2023-04-29T07:56:14.043Z,98064.39
2023-04-29T07:58:41.069Z,98070.45
2023-04-29T08:01:12.373Z,98069.12
2023-04-29T08:03:41.391Z,98072.23
2023-04-29T08:06:09.194Z,98073.30
2023-04-29T08:08:36.533Z,98073.05
2023-04-29T08:11:03.684Z,98071.70
2023-04-29T08:13:30.690Z,98074.54
2023-04-29T08:15:57.846Z,98074.20
2023-04-29T08:18:24.753Z,98073.92
2023-04-29T08:20:51.710Z,98075.42
2023-04-29T08:23:18.561Z,98076.99
2023-04-29T08:25:45.877Z,98071.42
2023-04-29T08:28:13.158Z,98072.23
2023-04-29T08:30:41.692Z,98073.20
2023-04-29T08:33:09.159Z,98073.23
2023-04-29T08:35:39.371Z,98072.16
2023-04-29T08:38:07.703Z,98071.41
2023-04-29T08:40:36.165Z,98068.71
2023-04-29T08:43:06.075Z,98070.45
2023-04-29T08:45:34.577Z,98072.14
2023-04-29T08:48:02.573Z,98072.33
2023-04-29T08:50:31.739Z,98072.59
2023-04-29T08:52:58.842Z,98069.68
2023-04-29T08:55:26.310Z,98069.19
2023-04-29T08:57:56.782Z,98070.48
2023-04-29T09:00:25.076Z,98067.42
2023-04-29T09:02:55.753Z,98066.24
2023-04-29T09:05:24.372Z,98063.33
2023-04-29T09:07:52.693Z,98061.20
2023-04-29T09:10:20.222Z,98061.45
2023-04-29T09:12:47.115Z,98057.83
2023-04-29T09:15:14.204Z,98060.13
2023-04-29T09:17:46.177Z,98065.70
2023-04-29T09:20:22.230Z,98062.62
2023-04-29T09:22:50.971Z,98058.26
2023-04-29T09:25:17.982Z,98057.38
2023-04-29T09:27:44.973Z,98061.34
2023-04-29T09:30:13.646Z,98058.48
2023-04-29T09:32:41.187Z,98059.88
2023-04-29T09:35:23.876Z,98058.56
2023-04-29T09:37:51.163Z,98056.58
2023-04-29T09:40:38.280Z,98052.87
2023-04-29T09:43:21.625Z,98055.30
2023-04-29T09:45:52.076Z,98052.21
2023-04-29T09:48:19.458Z,98050.98
2023-04-29T09:51:01.987Z,98051.06
2023-04-29T09:53:30.442Z,98048.65
2023-04-29T09:59:27.242Z,98042.89
2023-04-29T10:01:58.920Z,98043.52
2023-04-29T10:04:27.332Z,98042.52
2023-04-29T10:06:55.803Z,98045.41
2023-04-29T10:09:44.588Z,98042.14
2023-04-29T10:12:14.069Z,98035.90
2023-04-29T10:15:15.365Z,98036.38
2023-04-29T10:18:03.627Z,98034.25
2023-04-29T10:21:06.823Z,98032.34
2023-04-29T10:23:37.010Z,98029.31
2023-04-29T10:26:05.981Z,98022.65
2023-04-29T10:28:33.250Z,98024.71
2023-04-29T10:31:06.905Z,98027.66
2023-04-29T10:33:35.996Z,98020.77
2023-04-29T10:36:03.858Z,98018.73
2023-04-29T10:38:42.060Z,98017.69
2023-04-29T10:41:17.269Z,98016.30
2023-04-29T10:43:44.464Z,98014.55
2023-04-29T10:46:21.423Z,98011.42
2023-04-29T10:48:55.554Z,98010.18
2023-04-29T10:51:34.327Z,98010.63
2023-04-29T10:54:13.738Z,98012.61
2023-04-29T10:56:58.838Z,98015.17
2023-04-29T10:59:29.040Z,98010.06
2023-04-29T11:01:55.925Z,98008.05
2023-04-29T11:04:23.485Z,98004.38
2023-04-29T11:06:55.920Z,98000.63
2023-04-29T11:09:27.920Z,98002.35
2023-04-29T11:12:08.186Z,98005.20
2023-04-29T11:14:41.561Z,98007.23
2023-04-29T11:17:19.183Z,98006.13
2023-04-29T11:19:47.662Z,98001.13
2023-04-29T11:22:23.405Z,97999.73
2023-04-29T11:25:01.497Z,97997.09
2023-04-29T11:27:43.486Z,98003.48
2023-04-29T11:30:10.651Z,97997.95
2023-04-29T11:32:45.869Z,98000.64
2023-04-29T11:35:13.001Z,98003.09
2023-04-29T11:37:41.201Z,98001.83
2023-04-29T11:40:09.563Z,98003.90
2023-04-29T11:42:42.902Z,98002.99
2023-04-29T11:45:10.549Z,98003.95
2023-04-29T11:47:37.561Z,97996.55
2023-04-29T11:50:07.968Z,97992.64
2023-04-29T11:52:40.457Z,97997.36
2023-04-29T11:55:11.831Z,97996.80
2023-04-29T11:57:41.995Z,97996.95
2023-04-29T12:00:14.891Z,97996.23
2023-04-29T12:02:46.775Z,97990.64
2023-04-29T12:05:16.102Z,97992.66
2023-04-29T12:07:43.520Z,97992.65
2023-04-29T12:10:11.909Z,97989.30
2023-04-29T12:12:41.514Z,97990.62
2023-04-29T12:15:13.074Z,97991.23
2023-04-29T12:17:40.685Z,97989.58
2023-04-29T12:20:10.978Z,97988.63
2023-04-29T12:22:38.088Z,97991.14
2023-04-29T12:25:05.632Z,97993.02
2023-04-29T12:27:34.572Z,97991.07
2023-04-29T12:30:01.575Z,97990.79
2023-04-29T12:32:28.602Z,97988.86
2023-04-29T12:34:56.153Z,97991.72
2023-04-29T12:37:27.156Z,97990.63
2023-04-29T12:39:55.994Z,97989.30
2023-04-29T12:42:22.784Z,97987.21
2023-04-29T12:44:49.732Z,97984.18
2023-04-29T12:47:17.630Z,97982.15
2023-04-29T12:49:48.338Z,97978.57
2023-04-29T12:52:15.457Z,97978.80
2023-04-29T12:54:43.993Z,97976.78
2023-04-29T12:57:38.141Z,97974.69
2023-04-29T13:00:05.680Z,97968.45
2023-04-29T13:02:39.233Z,97970.56
2023-04-29T13:05:20.233Z,97969.31
2023-04-29T13:08:07.579Z,97971.26
2023-04-29T13:17:49.493Z,97972.95
2023-04-29T13:20:19.802Z,97972.56
2023-04-29T13:22:46.788Z,97973.33
2023-04-29T13:25:15.194Z,97971.69
2023-04-29T13:27:42.160Z,97970.17
2023-04-29T13:30:09.597Z,97972.88
2023-04-29T13:35:08.194Z,97971.83
2023-04-29T13:37:35.165Z,97972.11
2023-04-29T13:40:02.201Z,97971.60
2023-04-29T13:42:29.422Z,97971.26
2023-04-29T13:44:57.812Z,97968.47
2023-04-29T13:47:32.383Z,97969.89
2023-04-29T13:50:44.656Z,97969.23
2023-04-29T13:56:14.494Z,97972.84
2023-04-29T14:03:08.076Z,97975.77
2023-04-29T14:05:35.484Z,97975.23
2023-04-29T14:08:02.764Z,97975.76
2023-04-29T14:10:29.875Z,97974.66
2023-04-29T14:12:56.858Z,97971.74
2023-04-29T14:15:23.772Z,97971.88
2023-04-29T14:17:50.767Z,97974.52
2023-04-29T14:20:17.722Z,97976.41
2023-04-29T14:22:44.580Z,97976.99
2023-04-29T14:25:12.788Z,97976.45
2023-04-29T14:27:39.790Z,97973.97
2023-04-29T14:30:07.265Z,97975.83
2023-04-29T14:32:34.131Z,97972.42
2023-04-29T14:35:00.934Z,97972.06
2023-04-29T14:37:27.777Z,97968.23
2023-04-29T14:39:54.650Z,97967.25
2023-04-29T14:42:21.504Z,97971.61
2023-04-29T14:44:48.544Z,97969.70
2023-04-29T14:47:15.359Z,97964.75
2023-04-29T14:49:42.780Z,97967.66
2023-04-29T14:52:10.005Z,97974.46
2023-04-29T14:54:36.908Z,97974.55
2023-04-29T14:57:24.013Z,97974.33
2023-04-29T14:59:51.211Z,97976.14
2023-04-29T15:02:18.447Z,97971.48
2023-04-29T15:04:46.725Z,97972.08
2023-04-29T15:07:14.086Z,97971.81
2023-04-29T15:09:41.029Z,97974.83
2023-04-29T15:12:08.771Z,97972.28
2023-04-29T15:14:36.490Z,97970.30
2023-04-29T15:17:03.468Z,97974.91
2023-04-29T15:19:30.415Z,97972.96
2023-04-29T15:21:57.264Z,97971.40
2023-04-29T15:24:24.161Z,97973.42
2023-04-29T15:26:52.237Z,97979.45
2023-04-29T15:29:19.156Z,97980.36
2023-04-29T15:31:46.200Z,97981.20
2023-04-29T15:34:13.161Z,97981.41
2023-04-29T15:36:40.466Z,97981.63
2023-04-29T15:39:10.968Z,97982.93
2023-04-29T15:41:39.124Z,97977.11
2023-04-29T15:44:06.433Z,97977.91
2023-04-29T15:46:33.394Z,97975.59
2023-04-29T15:49:01.078Z,97967.55
2023-04-29T15:51:27.872Z,97964.74
2023-04-29T15:53:54.721Z,97964.81
2023-04-29T15:56:21.714Z,97961.98
2023-04-29T15:58:48.779Z,97957.58
2023-04-29T16:01:16.038Z,97958.69
2023-04-29T16:03:42.900Z,97957.39
2023-04-29T16:06:10.169Z,97957.14
2023-04-29T16:08:37.207Z,97956.59
2023-04-29T16:11:04.243Z,97953.45
2023-04-29T16:13:31.024Z,97954.08
2023-04-29T16:15:57.836Z,97955.66
2023-04-29T16:18:25.158Z,97952.89
2023-04-29T16:20:52.247Z,97956.91
2023-04-29T16:23:19.258Z,97960.62
2023-04-29T16:25:46.153Z,97961.46
2023-04-29T16:28:13.026Z,97960.83
2023-04-29T16:30:40.114Z,97965.16
2023-04-29T16:33:06.923Z,97964.53
2023-04-29T16:35:34.398Z,97967.30
2023-04-29T16:38:01.284Z,97970.09
2023-04-29T16:40:29.654Z,97970.16
2023-04-29T16:42:57.970Z,97976.73
2023-04-29T16:45:25.718Z,97973.38
2023-04-29T16:47:53.262Z,97975.59
2023-04-29T16:50:20.307Z,97974.70
2023-04-29T16:52:47.092Z,97976.89
2023-04-29T16:55:13.927Z,97981.73
2023-04-29T16:57:40.788Z,97984.40
2023-04-29T17:00:12.311Z,97984.48
2023-04-29T17:02:40.509Z,97985.35
2023-04-29T17:05:09.189Z,97985.27
2023-04-29T17:07:36.558Z,97987.01
2023-04-29T17:10:05.014Z,97989.57
2023-04-29T17:12:32.687Z,97992.59
2023-04-29T17:14:59.804Z,97993.52
2023-04-29T17:17:26.797Z,97997.47
2023-04-29T17:19:54.437Z,97994.22
2023-04-29T17:22:21.585Z,98003.20
2023-04-29T17:24:49.367Z,98000.29
2023-04-29T17:27:16.625Z,98004.29
2023-04-29T17:29:43.692Z,98006.59
2023-04-29T17:32:17.357Z,98007.24
2023-04-29T17:34:44.603Z,98006.62
2023-04-29T17:37:11.477Z,98008.16
2023-04-29T17:39:38.490Z,98007.35
2023-04-29T17:42:05.452Z,98008.87
2023-04-29T17:44:32.561Z,98008.63
2023-04-29T17:46:59.540Z,98010.63
2023-04-29T17:49:26.343Z,98012.25
2023-04-29T17:51:53.459Z,98016.57
2023-04-29T17:54:20.719Z,98017.79
2023-04-29T17:56:47.563Z,98020.27
2023-04-29T17:59:14.348Z,98025.05
2023-04-29T18:01:41.817Z,98029.56
2023-04-29T18:04:09.080Z,98030.58
2023-04-29T18:06:36.348Z,98033.79
2023-04-29T18:09:04.325Z,98038.48
2023-04-29T18:11:31.601Z,98044.69
2023-04-29T18:13:58.862Z,98052.70
2023-04-29T18:16:38.367Z,98055.12
2023-04-29T18:19:25.031Z,98048.92
2023-04-29T18:22:03.583Z,98049.41
2023-04-29T18:24:33.785Z,98051.67
2023-04-29T18:32:42.795Z,98068.05
2023-04-29T18:35:09.855Z,98065.27
2023-04-29T18:37:39.055Z,98067.71
2023-04-29T18:40:38.554Z,98063.40
2023-04-29T18:43:29.647Z,98060.08
2023-04-29T18:45:58.571Z,98063.61
2023-04-29T18:48:25.472Z,98067.10
2023-04-29T18:50:52.967Z,98071.55
2023-04-29T18:53:20.295Z,98072.52
2023-04-29T18:55:47.566Z,98079.15
2023-04-29T18:58:14.522Z,98097.89
2023-04-29T19:00:41.596Z,98118.34
2023-04-29T19:03:11.702Z,98120.41
2023-04-29T19:05:38.900Z,98125.20
2023-04-29T19:08:06.267Z,98127.54
2023-04-29T19:10:33.313Z,98134.81
2023-04-29T19:13:00.255Z,98138.41
2023-04-29T19:15:28.576Z,98133.54
2023-04-29T19:18:23.338Z,98130.93
2023-04-29T19:20:58.145Z,98132.36
2023-04-29T19:23:25.428Z,98132.00
2023-04-29T19:25:53.038Z,98132.27
2023-04-29T19:28:23.097Z,98127.40
2023-04-29T19:30:54.254Z,98126.13
2023-04-29T19:36:25.628Z,98128.90
2023-04-29T19:38:52.529Z,98126.88
2023-04-29T19:41:21.020Z,98124.56
2023-04-29T19:43:47.896Z,98122.92
2023-04-29T19:46:15.215Z,98123.52
2023-04-29T19:48:55.299Z,98124.29
2023-04-29T19:51:22.295Z,98126.77
2023-04-29T19:53:50.063Z,98125.89
2023-04-29T19:56:17.256Z,98128.02
2023-04-29T19:58:44.176Z,98130.62
2023-04-29T20:06:37.780Z,98124.52
2023-04-29T20:09:09.396Z,98127.98
2023-04-29T20:15:31.880Z,98124.91
2023-04-29T20:27:26.712Z,98119.94
2023-04-29T20:37:24.350Z,98110.98
2023-04-29T20:52:49.474Z,98103.54
2023-04-29T20:56:15.830Z,98105.55
2023-04-29T21:02:26.403Z,98116.06
2023-04-29T21:08:27.639Z,98114.17
2023-04-29T21:11:39.748Z,98114.23
2023-04-29T21:14:47.050Z,98110.66
2023-04-29T21:23:19.692Z,98111.39
2023-04-29T21:26:32.787Z,98109.45
2023-04-29T21:29:42.675Z,98108.48
2023-04-29T21:32:24.547Z,98106.27
2023-04-29T21:34:51.980Z,98109.70
2023-04-29T21:40:19.500Z,98119.48
2023-04-29T21:46:19.128Z,98118.39
2023-04-29T21:49:19.702Z,98121.11
2023-04-29T21:52:40.590Z,98128.39
2023-04-29T21:58:47.491Z,98126.84
2023-04-29T22:16:12.259Z,98129.34
2023-04-29T22:18:59.145Z,98133.66
2023-04-29T22:21:28.060Z,98131.52
2023-04-29T22:23:56.172Z,98132.83
2023-04-29T22:26:25.536Z,98128.77
2023-04-29T22:29:15.270Z,98129.25
2023-04-29T22:32:02.685Z,98125.29
2023-04-29T22:35:10.564Z,98128.20
2023-04-29T22:37:57.869Z,98130.31
2023-04-29T22:40:27.824Z,98132.65
2023-04-29T22:42:54.817Z,98129.69
2023-04-29T22:45:21.734Z,98131.33
2023-04-29T22:47:48.921Z,98135.55
2023-04-29T22:50:16.138Z,98138.15
2023-04-29T22:52:43.985Z,98140.78
2023-04-29T22:55:11.191Z,98139.91
2023-04-29T22:57:38.153Z,98138.83
2023-04-29T23:00:06.696Z,98142.43
2023-04-29T23:02:33.692Z,98143.95
2023-04-29T23:07:59.163Z,98138.42
2023-04-29T23:11:02.354Z,98138.08
2023-04-29T23:13:38.386Z,98140.77
2023-04-29T23:19:29.248Z,98143.71
2023-04-29T23:39:24.378Z,98149.19
2023-04-29T23:45:08.691Z,98145.52
2023-04-29T23:48:09.976Z,98148.20
2023-04-29T23:51:18.710Z,98147.98
